Terminal Aerodrome Forecast
Issued by NWS Charleston, WV

Current Version | Previous Version | Text Only | Print | Product List | Glossary Off
Versions: 1 2 3 4 5 6 7 8 9 10 11 12 13 14 15 16 17 18 19 20 21 22 23 24 25 26 27 28

000
FTUS41 KRLX 192000 AAA
TAFCRW
TAF AMD
KCRW 192021Z 1920/2018 09007KT P6SM SCT035
     FM192300 12008G14KT P6SM SCT040
     FM200700 14006KT P6SM SCT080
     FM200900 00000KT 3SM BR FEW001 SCT080
     FM201000 00000KT 2SM BR BKN001
     FM201300 00000KT 5SM BR SCT002 SCT080
     FM201500 18005KT P6SM SCT040=

USA.gov is the U.S. government's official web portal to all federal, state and local government web resources and services.